sensor_id;sensor_type;location;lat;lon;timestamp;pressure;altitude;pressure_sealevel;temperature;humidity
75998;BME280;64685;48.762;44.822;2023-09-19T00:03:50;101827.00;;;17.68;47.33
75998;BME280;64685;48.762;44.822;2023-09-19T00:08:52;101822.75;;;17.62;47.97
75998;BME280;64685;48.762;44.822;2023-09-19T00:13:57;101819.44;;;17.60;48.25
75998;BME280;64685;48.762;44.822;2023-09-19T00:19:02;101809.66;;;17.57;48.38
75998;BME280;64685;48.762;44.822;2023-09-19T00:24:05;101806.50;;;17.59;47.97
75998;BME280;64685;48.762;44.822;2023-09-19T00:29:08;101801.25;;;17.69;47.46
75998;BME280;64685;48.762;44.822;2023-09-19T00:34:11;101795.31;;;17.62;47.49
75998;BME280;64685;48.762;44.822;2023-09-19T00:39:13;101798.50;;;17.61;47.47
75998;BME280;64685;48.762;44.822;2023-09-19T00:44:16;101795.13;;;17.47;47.17
75998;BME280;64685;48.762;44.822;2023-09-19T00:49:20;101790.22;;;17.27;47.08
75998;BME280;64685;48.762;44.822;2023-09-19T00:54:25;101796.25;;;17.17;46.98
75998;BME280;64685;48.762;44.822;2023-09-19T00:59:28;101795.50;;;17.08;47.12
75998;BME280;64685;48.762;44.822;2023-09-19T01:04:32;101789.94;;;16.91;47.43
75998;BME280;64685;48.762;44.822;2023-09-19T01:09:35;101783.34;;;16.78;47.71
75998;BME280;64685;48.762;44.822;2023-09-19T01:14:46;101778.22;;;16.72;48.11
75998;BME280;64685;48.762;44.822;2023-09-19T01:20:01;101779.56;;;16.66;47.99
75998;BME280;64685;48.762;44.822;2023-09-19T01:30:56;101775.97;;;16.94;47.84
75998;BME280;64685;48.762;44.822;2023-09-19T01:36:02;101778.50;;;17.16;47.29
75998;BME280;64685;48.762;44.822;2023-09-19T01:41:09;101772.28;;;17.23;47.33
75998;BME280;64685;48.762;44.822;2023-09-19T01:46:29;101779.91;;;17.31;47.25
75998;BME280;64685;48.762;44.822;2023-09-19T01:52:01;101777.00;;;17.48;46.86
75998;BME280;64685;48.762;44.822;2023-09-19T01:57:20;101786.91;;;17.54;46.84
75998;BME280;64685;48.762;44.822;2023-09-19T02:02:25;101776.59;;;17.58;46.98
75998;BME280;64685;48.762;44.822;2023-09-19T02:07:28;101783.31;;;17.65;47.09
75998;BME280;64685;48.762;44.822;2023-09-19T02:12:33;101787.25;;;17.73;46.53
75998;BME280;64685;48.762;44.822;2023-09-19T02:17:38;101793.53;;;17.78;46.67
75998;BME280;64685;48.762;44.822;2023-09-19T02:22:41;101784.00;;;17.83;46.59
75998;BME280;64685;48.762;44.822;2023-09-19T02:28:04;101794.47;;;17.82;46.26
75998;BME280;64685;48.762;44.822;2023-09-19T02:33:07;101797.03;;;17.75;46.62
75998;BME280;64685;48.762;44.822;2023-09-19T02:38:10;101801.25;;;17.69;47.03
75998;BME280;64685;48.762;44.822;2023-09-19T02:43:14;101802.63;;;17.63;47.67
75998;BME280;64685;48.762;44.822;2023-09-19T02:48:17;101810.63;;;17.61;47.59
75998;BME280;64685;48.762;44.822;2023-09-19T02:53:21;101813.59;;;17.65;47.52
75998;BME280;64685;48.762;44.822;2023-09-19T02:58:24;101811.94;;;17.64;47.62
75998;BME280;64685;48.762;44.822;2023-09-19T03:03:27;101820.41;;;17.64;47.67
75998;BME280;64685;48.762;44.822;2023-09-19T03:08:31;101820.03;;;17.65;48.01
75998;BME280;64685;48.762;44.822;2023-09-19T03:13:35;101828.06;;;17.63;47.97
75998;BME280;64685;48.762;44.822;2023-09-19T03:18:41;101830.03;;;17.63;48.17
75998;BME280;64685;48.762;44.822;2023-09-19T03:23:44;101845.97;;;17.67;48.39
75998;BME280;64685;48.762;44.822;2023-09-19T03:28:50;101847.16;;;17.66;48.71
75998;BME280;64685;48.762;44.822;2023-09-19T03:33:52;101856.09;;;17.68;48.96
75998;BME280;64685;48.762;44.822;2023-09-19T03:38:56;101854.25;;;17.72;48.98
75998;BME280;64685;48.762;44.822;2023-09-19T03:44:01;101851.72;;;17.79;49.38
75998;BME280;64685;48.762;44.822;2023-09-19T03:49:04;101854.34;;;17.84;49.71
75998;BME280;64685;48.762;44.822;2023-09-19T03:54:07;101855.28;;;17.88;49.90
75998;BME280;64685;48.762;44.822;2023-09-19T03:59:11;101854.75;;;17.95;50.30
75998;BME280;64685;48.762;44.822;2023-09-19T04:04:14;101868.47;;;18.05;50.95
75998;BME280;64685;48.762;44.822;2023-09-19T04:09:18;101862.47;;;18.06;50.67
75998;BME280;64685;48.762;44.822;2023-09-19T04:14:22;101873.34;;;18.16;50.66
75998;BME280;64685;48.762;44.822;2023-09-19T04:19:25;101873.50;;;18.20;50.50
75998;BME280;64685;48.762;44.822;2023-09-19T04:24:29;101872.94;;;18.26;50.70
75998;BME280;64685;48.762;44.822;2023-09-19T04:29:32;101872.25;;;18.29;50.85
75998;BME280;64685;48.762;44.822;2023-09-19T04:34:35;101873.13;;;18.42;51.15
75998;BME280;64685;48.762;44.822;2023-09-19T04:39:37;101881.19;;;18.52;51.08
75998;BME280;64685;48.762;44.822;2023-09-19T04:44:41;101887.09;;;18.59;51.08
75998;BME280;64685;48.762;44.822;2023-09-19T04:49:44;101872.53;;;18.69;50.94
75998;BME280;64685;48.762;44.822;2023-09-19T04:54:46;101884.47;;;18.74;51.08
75998;BME280;64685;48.762;44.822;2023-09-19T04:59:50;101890.63;;;18.88;51.10
75998;BME280;64685;48.762;44.822;2023-09-19T05:04:53;101893.03;;;19.10;50.82
75998;BME280;64685;48.762;44.822;2023-09-19T05:09:56;101887.78;;;19.33;50.24
75998;BME280;64685;48.762;44.822;2023-09-19T05:14:58;101900.75;;;19.58;50.40
75998;BME280;64685;48.762;44.822;2023-09-19T05:20:02;101884.22;;;19.72;49.41
75998;BME280;64685;48.762;44.822;2023-09-19T05:25:12;101895.75;;;20.15;49.27
75998;BME280;64685;48.762;44.822;2023-09-19T05:30:19;101897.97;;;20.49;48.36
75998;BME280;64685;48.762;44.822;2023-09-19T05:35:23;101902.53;;;20.93;47.98
75998;BME280;64685;48.762;44.822;2023-09-19T05:40:26;101891.81;;;21.33;47.14
75998;BME280;64685;48.762;44.822;2023-09-19T05:45:29;101898.03;;;21.85;46.08
75998;BME280;64685;48.762;44.822;2023-09-19T05:50:32;101907.00;;;22.21;44.99
75998;BME280;64685;48.762;44.822;2023-09-19T05:55:36;101901.91;;;22.65;44.24
75998;BME280;64685;48.762;44.822;2023-09-19T06:00:39;101915.47;;;23.32;43.41
75998;BME280;64685;48.762;44.822;2023-09-19T06:05:43;101909.13;;;23.68;42.40
75998;BME280;64685;48.762;44.822;2023-09-19T06:10:48;101920.84;;;23.85;42.07
75998;BME280;64685;48.762;44.822;2023-09-19T06:15:51;101927.44;;;23.89;41.46
75998;BME280;64685;48.762;44.822;2023-09-19T06:20:53;101934.84;;;24.20;40.10
75998;BME280;64685;48.762;44.822;2023-09-19T06:25:56;101926.69;;;25.97;37.43
75998;BME280;64685;48.762;44.822;2023-09-19T06:31:02;101933.88;;;26.35;35.65
75998;BME280;64685;48.762;44.822;2023-09-19T06:36:06;101930.00;;;26.64;35.65
75998;BME280;64685;48.762;44.822;2023-09-19T06:41:09;101933.50;;;27.39;34.56
75998;BME280;64685;48.762;44.822;2023-09-19T06:46:11;101930.22;;;27.76;33.86
75998;BME280;64685;48.762;44.822;2023-09-19T06:51:15;101934.28;;;29.89;30.64
75998;BME280;64685;48.762;44.822;2023-09-19T06:56:17;101941.50;;;30.11;30.27
75998;BME280;64685;48.762;44.822;2023-09-19T07:01:20;101927.72;;;29.30;31.16
75998;BME280;64685;48.762;44.822;2023-09-19T07:06:23;101925.66;;;28.31;31.27
75998;BME280;64685;48.762;44.822;2023-09-19T07:11:26;101928.47;;;28.69;31.52
75998;BME280;64685;48.762;44.822;2023-09-19T07:16:29;101934.53;;;30.82;28.84
75998;BME280;64685;48.762;44.822;2023-09-19T07:21:32;101938.84;;;31.57;27.31
75998;BME280;64685;48.762;44.822;2023-09-19T07:26:35;101916.47;;;32.53;25.57
75998;BME280;64685;48.762;44.822;2023-09-19T07:31:38;101912.47;;;32.24;25.12
75998;BME280;64685;48.762;44.822;2023-09-19T07:36:40;101906.75;;;32.83;24.82
75998;BME280;64685;48.762;44.822;2023-09-19T07:41:45;101918.63;;;33.24;23.73
75998;BME280;64685;48.762;44.822;2023-09-19T07:46:49;101912.44;;;31.82;25.08
75998;BME280;64685;48.762;44.822;2023-09-19T07:51:53;101911.66;;;32.01;25.07
75998;BME280;64685;48.762;44.822;2023-09-19T07:56:57;101908.00;;;32.20;24.39
75998;BME280;64685;48.762;44.822;2023-09-19T08:02:01;101906.75;;;32.63;23.68
75998;BME280;64685;48.762;44.822;2023-09-19T08:07:04;101909.91;;;31.34;24.63
75998;BME280;64685;48.762;44.822;2023-09-19T08:12:08;101907.38;;;33.45;22.78
75998;BME280;64685;48.762;44.822;2023-09-19T08:17:12;101907.03;;;33.91;21.72
75998;BME280;64685;48.762;44.822;2023-09-19T08:22:15;101898.13;;;34.30;21.25
75998;BME280;64685;48.762;44.822;2023-09-19T08:27:19;101907.22;;;35.52;20.37
75998;BME280;64685;48.762;44.822;2023-09-19T08:32:22;101906.97;;;35.96;20.29
75998;BME280;64685;48.762;44.822;2023-09-19T08:37:27;101892.41;;;36.86;19.85
75998;BME280;64685;48.762;44.822;2023-09-19T08:42:30;101888.22;;;36.87;18.64
75998;BME280;64685;48.762;44.822;2023-09-19T08:47:45;101883.66;;;37.07;18.83
75998;BME280;64685;48.762;44.822;2023-09-19T08:52:51;101879.16;;;37.46;18.24
75998;BME280;64685;48.762;44.822;2023-09-19T08:58:03;101892.56;;;37.83;18.05
75998;BME280;64685;48.762;44.822;2023-09-19T09:03:09;101874.47;;;37.48;17.81
75998;BME280;64685;48.762;44.822;2023-09-19T09:08:13;101869.78;;;35.79;18.48
75998;BME280;64685;48.762;44.822;2023-09-19T09:13:17;101865.59;;;36.14;18.57
75998;BME280;64685;48.762;44.822;2023-09-19T09:18:20;101856.50;;;36.89;17.75
75998;BME280;64685;48.762;44.822;2023-09-19T09:23:22;101860.44;;;36.73;18.87
75998;BME280;64685;48.762;44.822;2023-09-19T09:28:28;101853.25;;;36.87;17.94
75998;BME280;64685;48.762;44.822;2023-09-19T09:33:33;101845.56;;;36.71;18.10
75998;BME280;64685;48.762;44.822;2023-09-19T09:38:46;101846.16;;;36.45;18.05
75998;BME280;64685;48.762;44.822;2023-09-19T09:43:53;101845.84;;;36.43;18.32
75998;BME280;64685;48.762;44.822;2023-09-19T09:48:58;101837.97;;;37.35;17.53
75998;BME280;64685;48.762;44.822;2023-09-19T09:54:18;101835.69;;;37.30;17.70
75998;BME280;64685;48.762;44.822;2023-09-19T09:59:55;101830.75;;;35.17;18.83
75998;BME280;64685;48.762;44.822;2023-09-19T10:05:21;101832.38;;;33.63;20.12
75998;BME280;64685;48.762;44.822;2023-09-19T10:10:41;101838.63;;;34.22;19.09
75998;BME280;64685;48.762;44.822;2023-09-19T10:15:48;101835.53;;;32.30;20.79
75998;BME280;64685;48.762;44.822;2023-09-19T10:20:55;101820.34;;;32.03;20.88
75998;BME280;64685;48.762;44.822;2023-09-19T10:26:01;101829.03;;;31.57;21.18
75998;BME280;64685;48.762;44.822;2023-09-19T10:31:07;101821.56;;;30.84;22.67
75998;BME280;64685;48.762;44.822;2023-09-19T10:36:12;101816.59;;;29.87;23.49
75998;BME280;64685;48.762;44.822;2023-09-19T10:41:16;101810.34;;;29.52;24.82
75998;BME280;64685;48.762;44.822;2023-09-19T10:46:22;101812.50;;;30.22;23.27
75998;BME280;64685;48.762;44.822;2023-09-19T10:51:28;101818.00;;;31.75;21.98
75998;BME280;64685;48.762;44.822;2023-09-19T10:56:38;101805.50;;;33.47;20.67
75998;BME280;64685;48.762;44.822;2023-09-19T11:01:53;101804.38;;;32.38;21.19
75998;BME280;64685;48.762;44.822;2023-09-19T11:07:10;101799.75;;;30.53;22.57
75998;BME280;64685;48.762;44.822;2023-09-19T11:17:43;101802.47;;;28.43;25.12
75998;BME280;64685;48.762;44.822;2023-09-19T11:33:20;101801.06;;;27.16;27.19
75998;BME280;64685;48.762;44.822;2023-09-19T11:49:08;101792.44;;;27.44;25.41
75998;BME280;64685;48.762;44.822;2023-09-19T11:54:18;101787.94;;;27.47;26.07
75998;BME280;64685;48.762;44.822;2023-09-19T11:59:28;101775.66;;;27.29;26.22
75998;BME280;64685;48.762;44.822;2023-09-19T12:04:34;101788.38;;;27.28;26.42
75998;BME280;64685;48.762;44.822;2023-09-19T12:09:47;101775.22;;;27.09;26.56
75998;BME280;64685;48.762;44.822;2023-09-19T12:14:50;101794.47;;;26.91;27.07
75998;BME280;64685;48.762;44.822;2023-09-19T12:19:56;101793.63;;;26.70;26.47
75998;BME280;64685;48.762;44.822;2023-09-19T12:25:06;101784.09;;;26.48;26.94
75998;BME280;64685;48.762;44.822;2023-09-19T12:30:13;101781.16;;;26.20;27.03
75998;BME280;64685;48.762;44.822;2023-09-19T12:35:32;101788.94;;;26.16;27.20
75998;BME280;64685;48.762;44.822;2023-09-19T12:40:38;101780.66;;;26.01;28.06
75998;BME280;64685;48.762;44.822;2023-09-19T12:45:45;101779.75;;;25.90;28.79
75998;BME280;64685;48.762;44.822;2023-09-19T12:51:10;101772.38;;;25.89;28.91
75998;BME280;64685;48.762;44.822;2023-09-19T12:56:16;101784.19;;;25.80;28.43
75998;BME280;64685;48.762;44.822;2023-09-19T13:01:21;101774.31;;;25.64;28.85
75998;BME280;64685;48.762;44.822;2023-09-19T13:06:37;101779.44;;;25.37;28.93
75998;BME280;64685;48.762;44.822;2023-09-19T13:11:41;101773.50;;;25.13;29.21
75998;BME280;64685;48.762;44.822;2023-09-19T13:22:40;101782.47;;;24.68;30.93
75998;BME280;64685;48.762;44.822;2023-09-19T13:27:55;101765.91;;;24.47;31.05
75998;BME280;64685;48.762;44.822;2023-09-19T13:33:09;101765.28;;;24.28;30.96
75998;BME280;64685;48.762;44.822;2023-09-19T13:38:13;101767.94;;;24.14;31.40
75998;BME280;64685;48.762;44.822;2023-09-19T13:43:15;101765.31;;;23.98;31.85
75998;BME280;64685;48.762;44.822;2023-09-19T13:48:18;101764.31;;;23.87;32.12
75998;BME280;64685;48.762;44.822;2023-09-19T13:53:24;101771.78;;;23.66;32.36
75998;BME280;64685;48.762;44.822;2023-09-19T13:58:28;101767.72;;;23.41;32.80
75998;BME280;64685;48.762;44.822;2023-09-19T14:03:31;101769.78;;;23.18;33.06
75998;BME280;64685;48.762;44.822;2023-09-19T14:08:34;101778.09;;;23.04;33.95
75998;BME280;64685;48.762;44.822;2023-09-19T14:13:37;101778.63;;;22.87;33.96
75998;BME280;64685;48.762;44.822;2023-09-19T14:18:39;101781.63;;;22.75;33.89
75998;BME280;64685;48.762;44.822;2023-09-19T14:23:43;101779.72;;;22.60;34.19
75998;BME280;64685;48.762;44.822;2023-09-19T14:28:46;101779.34;;;22.42;34.72
75998;BME280;64685;48.762;44.822;2023-09-19T14:33:54;101788.50;;;22.32;35.11
75998;BME280;64685;48.762;44.822;2023-09-19T14:38:58;101780.00;;;22.13;35.18
75998;BME280;64685;48.762;44.822;2023-09-19T14:44:02;101778.81;;;21.95;35.58
75998;BME280;64685;48.762;44.822;2023-09-19T14:49:05;101780.13;;;21.82;35.94
75998;BME280;64685;48.762;44.822;2023-09-19T14:54:09;101790.00;;;21.69;36.18
75998;BME280;64685;48.762;44.822;2023-09-19T14:59:11;101791.66;;;21.55;36.33
75998;BME280;64685;48.762;44.822;2023-09-19T15:04:15;101796.47;;;21.35;36.52
75998;BME280;64685;48.762;44.822;2023-09-19T15:09:18;101788.63;;;21.13;36.96
75998;BME280;64685;48.762;44.822;2023-09-19T15:14:21;101775.72;;;21.00;37.25
75998;BME280;64685;48.762;44.822;2023-09-19T15:19:24;101789.16;;;20.88;37.46
75998;BME280;64685;48.762;44.822;2023-09-19T15:24:27;101789.16;;;20.72;38.02
75998;BME280;64685;48.762;44.822;2023-09-19T15:29:29;101785.81;;;20.55;38.45
75998;BME280;64685;48.762;44.822;2023-09-19T15:34:32;101785.53;;;20.44;38.51
75998;BME280;64685;48.762;44.822;2023-09-19T15:39:35;101789.25;;;20.33;38.74
75998;BME280;64685;48.762;44.822;2023-09-19T15:44:39;101787.16;;;20.30;38.96
75998;BME280;64685;48.762;44.822;2023-09-19T15:49:43;101796.03;;;20.28;38.91
75998;BME280;64685;48.762;44.822;2023-09-19T15:54:46;101797.75;;;20.05;39.93
75998;BME280;64685;48.762;44.822;2023-09-19T15:59:48;101808.56;;;20.00;40.05
75998;BME280;64685;48.762;44.822;2023-09-19T16:04:54;101813.78;;;19.86;40.86
75998;BME280;64685;48.762;44.822;2023-09-19T16:09:57;101818.75;;;19.77;40.74
75998;BME280;64685;48.762;44.822;2023-09-19T16:15:02;101813.22;;;19.68;41.13
75998;BME280;64685;48.762;44.822;2023-09-19T16:20:05;101823.78;;;19.56;41.88
75998;BME280;64685;48.762;44.822;2023-09-19T16:25:10;101825.66;;;19.52;41.76
75998;BME280;64685;48.762;44.822;2023-09-19T16:30:14;101830.75;;;19.46;41.67
75998;BME280;64685;48.762;44.822;2023-09-19T16:35:17;101831.69;;;19.38;41.73
75998;BME280;64685;48.762;44.822;2023-09-19T16:40:20;101839.75;;;19.36;41.48
75998;BME280;64685;48.762;44.822;2023-09-19T16:45:23;101849.03;;;19.37;41.76
75998;BME280;64685;48.762;44.822;2023-09-19T16:50:27;101858.28;;;19.34;41.69
75998;BME280;64685;48.762;44.822;2023-09-19T16:55:33;101854.47;;;19.30;41.89
75998;BME280;64685;48.762;44.822;2023-09-19T17:00:56;101867.09;;;19.20;42.38
75998;BME280;64685;48.762;44.822;2023-09-19T17:05:58;101871.31;;;19.14;42.71
75998;BME280;64685;48.762;44.822;2023-09-19T17:11:08;101871.09;;;19.07;43.32
75998;BME280;64685;48.762;44.822;2023-09-19T17:16:14;101875.56;;;18.96;43.63
75998;BME280;64685;48.762;44.822;2023-09-19T17:21:27;101887.47;;;19.02;43.53
75998;BME280;64685;48.762;44.822;2023-09-19T17:26:30;101878.75;;;19.07;43.33
75998;BME280;64685;48.762;44.822;2023-09-19T17:31:35;101878.09;;;19.22;43.07
75998;BME280;64685;48.762;44.822;2023-09-19T17:36:40;101885.16;;;19.16;43.44
75998;BME280;64685;48.762;44.822;2023-09-19T17:41:44;101885.59;;;19.06;43.81
75998;BME280;64685;48.762;44.822;2023-09-19T17:46:47;101893.25;;;19.17;43.63
75998;BME280;64685;48.762;44.822;2023-09-19T17:51:50;101896.50;;;19.28;43.15
75998;BME280;64685;48.762;44.822;2023-09-19T17:56:53;101889.28;;;19.18;43.49
75998;BME280;64685;48.762;44.822;2023-09-19T18:01:56;101893.84;;;18.99;44.26
75998;BME280;64685;48.762;44.822;2023-09-19T18:06:59;101893.34;;;18.85;45.21
75998;BME280;64685;48.762;44.822;2023-09-19T18:12:02;101893.97;;;18.70;45.97
75998;BME280;64685;48.762;44.822;2023-09-19T18:17:06;101901.13;;;18.55;46.28
75998;BME280;64685;48.762;44.822;2023-09-19T18:22:11;101881.50;;;18.38;46.33
75998;BME280;64685;48.762;44.822;2023-09-19T18:27:14;101895.44;;;18.43;47.03
75998;BME280;64685;48.762;44.822;2023-09-19T18:32:16;101891.50;;;18.36;47.20
75998;BME280;64685;48.762;44.822;2023-09-19T18:37:20;101890.88;;;18.30;47.52
75998;BME280;64685;48.762;44.822;2023-09-19T18:42:22;101887.28;;;18.21;47.32
75998;BME280;64685;48.762;44.822;2023-09-19T18:47:25;101886.47;;;18.21;47.49
75998;BME280;64685;48.762;44.822;2023-09-19T18:52:31;101889.63;;;18.19;47.85
75998;BME280;64685;48.762;44.822;2023-09-19T18:57:33;101885.50;;;18.17;47.91
75998;BME280;64685;48.762;44.822;2023-09-19T19:02:37;101888.06;;;18.10;48.09
75998;BME280;64685;48.762;44.822;2023-09-19T19:07:44;101896.09;;;17.79;49.50
75998;BME280;64685;48.762;44.822;2023-09-19T19:12:46;101903.44;;;17.71;48.90
75998;BME280;64685;48.762;44.822;2023-09-19T19:17:49;101899.91;;;17.54;48.81
75998;BME280;64685;48.762;44.822;2023-09-19T19:22:52;101905.09;;;17.43;48.72
75998;BME280;64685;48.762;44.822;2023-09-19T19:27:55;101908.28;;;17.42;48.84
75998;BME280;64685;48.762;44.822;2023-09-19T19:32:58;101903.97;;;17.36;49.19
75998;BME280;64685;48.762;44.822;2023-09-19T19:38:00;101906.38;;;17.17;49.96
75998;BME280;64685;48.762;44.822;2023-09-19T19:43:03;101914.38;;;17.06;50.29
75998;BME280;64685;48.762;44.822;2023-09-19T19:48:06;101911.09;;;17.04;50.28
75998;BME280;64685;48.762;44.822;2023-09-19T19:53:09;101912.25;;;16.95;50.70
75998;BME280;64685;48.762;44.822;2023-09-19T19:58:12;101905.97;;;16.89;51.12
75998;BME280;64685;48.762;44.822;2023-09-19T20:03:18;101904.94;;;17.02;50.70
75998;BME280;64685;48.762;44.822;2023-09-19T20:08:20;101911.13;;;16.96;50.92
75998;BME280;64685;48.762;44.822;2023-09-19T20:13:23;101918.03;;;16.98;50.95
75998;BME280;64685;48.762;44.822;2023-09-19T20:18:26;101907.78;;;16.94;51.12
75998;BME280;64685;48.762;44.822;2023-09-19T20:23:28;101917.25;;;16.89;51.62
75998;BME280;64685;48.762;44.822;2023-09-19T20:28:31;101914.78;;;16.79;51.88
75998;BME280;64685;48.762;44.822;2023-09-19T20:33:35;101894.22;;;16.70;51.81
75998;BME280;64685;48.762;44.822;2023-09-19T20:38:40;101910.16;;;16.75;51.96
75998;BME280;64685;48.762;44.822;2023-09-19T20:43:46;101907.53;;;16.70;51.88
75998;BME280;64685;48.762;44.822;2023-09-19T20:48:48;101914.69;;;16.59;52.81
75998;BME280;64685;48.762;44.822;2023-09-19T20:53:52;101906.88;;;16.56;52.68
75998;BME280;64685;48.762;44.822;2023-09-19T20:58:55;101913.34;;;16.48;53.12
75998;BME280;64685;48.762;44.822;2023-09-19T21:03:58;101908.69;;;16.35;53.94
75998;BME280;64685;48.762;44.822;2023-09-19T21:09:01;101915.31;;;16.30;54.06
75998;BME280;64685;48.762;44.822;2023-09-19T21:14:03;101916.81;;;16.19;54.86
75998;BME280;64685;48.762;44.822;2023-09-19T21:19:08;101924.44;;;16.10;55.02
75998;BME280;64685;48.762;44.822;2023-09-19T21:24:12;101920.13;;;16.04;55.84
75998;BME280;64685;48.762;44.822;2023-09-19T21:29:19;101918.81;;;16.02;55.63
75998;BME280;64685;48.762;44.822;2023-09-19T21:34:22;101912.00;;;16.03;55.63
75998;BME280;64685;48.762;44.822;2023-09-19T21:39:24;101901.56;;;15.86;56.14
75998;BME280;64685;48.762;44.822;2023-09-19T21:44:27;101926.91;;;15.86;56.30
75998;BME280;64685;48.762;44.822;2023-09-19T21:49:30;101921.94;;;15.83;56.26
75998;BME280;64685;48.762;44.822;2023-09-19T21:54:32;101926.56;;;15.79;55.48
75998;BME280;64685;48.762;44.822;2023-09-19T21:59:35;101924.72;;;15.75;55.70
75998;BME280;64685;48.762;44.822;2023-09-19T22:04:37;101928.38;;;15.75;55.71
75998;BME280;64685;48.762;44.822;2023-09-19T22:09:42;101930.50;;;15.70;55.33
75998;BME280;64685;48.762;44.822;2023-09-19T22:14:45;101935.66;;;15.68;55.43
75998;BME280;64685;48.762;44.822;2023-09-19T22:19:47;101934.63;;;15.64;55.75
75998;BME280;64685;48.762;44.822;2023-09-19T22:24:50;101940.41;;;15.59;55.74
75998;BME280;64685;48.762;44.822;2023-09-19T22:29:56;101944.53;;;15.53;56.66
75998;BME280;64685;48.762;44.822;2023-09-19T22:34:58;101942.06;;;15.51;56.33
75998;BME280;64685;48.762;44.822;2023-09-19T22:40:06;101949.03;;;15.54;56.52
75998;BME280;64685;48.762;44.822;2023-09-19T22:45:20;101940.75;;;15.57;56.38
75998;BME280;64685;48.762;44.822;2023-09-19T22:50:24;101947.56;;;15.65;55.79
75998;BME280;64685;48.762;44.822;2023-09-19T22:55:28;101949.59;;;15.73;55.56
75998;BME280;64685;48.762;44.822;2023-09-19T23:00:33;101945.59;;;15.65;56.17
75998;BME280;64685;48.762;44.822;2023-09-19T23:05:36;101949.06;;;15.71;55.60
75998;BME280;64685;48.762;44.822;2023-09-19T23:10:45;101956.72;;;15.79;55.24
75998;BME280;64685;48.762;44.822;2023-09-19T23:15:54;101944.59;;;15.70;55.07
75998;BME280;64685;48.762;44.822;2023-09-19T23:20:57;101952.91;;;15.75;55.36
75998;BME280;64685;48.762;44.822;2023-09-19T23:26:14;101947.91;;;15.72;55.65
75998;BME280;64685;48.762;44.822;2023-09-19T23:31:18;101956.50;;;15.58;55.67
75998;BME280;64685;48.762;44.822;2023-09-19T23:36:22;101949.66;;;15.42;56.43
75998;BME280;64685;48.762;44.822;2023-09-19T23:41:25;101957.75;;;15.35;57.12
75998;BME280;64685;48.762;44.822;2023-09-19T23:46:29;101949.81;;;15.37;56.60
75998;BME280;64685;48.762;44.822;2023-09-19T23:51:35;101950.13;;;15.36;56.44
75998;BME280;64685;48.762;44.822;2023-09-19T23:56:40;101955.81;;;15.22;57.15
